Time;durP1;ratioP1;P1;durP2;ratioP2;P2;SDS_P1;SDS_P2;PMS_P1;PMS_P2;Temp;Humidity;BMP_temperature;BMP_pressure;BME280_temperature;BME280_humidity;BME280_pressure;Samples;Min_cycle;Max_cycle;Signal;HPM_P1;HPM_P2
2023/08/26 00:01:13;;;;;;;28.85;19.52;;;;;;;16.39;100.00;100901.25;5047367;28;20021;-52
2023/08/26 00:03:38;;;;;;;23.35;16.63;;;;;;;16.34;100.00;100901.72;5052719;28;20035;-53
2023/08/26 00:06:04;;;;;;;17.70;14.13;;;;;;;16.31;100.00;100902.00;5047874;28;20032;-54
2023/08/26 00:08:29;;;;;;;17.45;12.90;;;;;;;16.26;100.00;100901.63;5046744;28;20069;-52
2023/08/26 00:10:55;;;;;;;15.18;10.32;;;;;;;16.15;100.00;100905.38;5048899;28;20035;-52
2023/08/26 00:13:20;;;;;;;13.45;9.20;;;;;;;16.06;100.00;100904.44;5046176;28;20029;-53
2023/08/26 00:15:45;;;;;;;16.55;9.25;;;;;;;16.02;100.00;100897.72;5050777;28;20471;-54
2023/08/26 00:18:11;;;;;;;12.90;8.73;;;;;;;15.96;100.00;100901.00;5044936;28;20055;-51
2023/08/26 00:20:38;;;;;;;15.88;9.70;;;;;;;15.93;100.00;100903.97;5046748;28;20107;-55
2023/08/26 00:23:03;;;;;;;14.48;9.00;;;;;;;15.88;100.00;100900.91;5054923;28;20028;-53
2023/08/26 00:25:29;;;;;;;15.07;9.25;;;;;;;15.84;100.00;100896.88;5043213;28;20033;-52
2023/08/26 00:27:54;;;;;;;12.10;9.07;;;;;;;15.82;100.00;100902.38;5045143;28;20056;-52
2023/08/26 00:30:20;;;;;;;14.30;8.32;;;;;;;15.79;100.00;100904.50;5039812;28;20025;-51
2023/08/26 00:32:45;;;;;;;13.68;8.82;;;;;;;15.73;100.00;100901.38;5046056;28;20139;-51
2023/08/26 00:35:11;;;;;;;13.45;8.45;;;;;;;15.69;100.00;100901.84;5049050;28;20017;-51
2023/08/26 00:37:36;;;;;;;12.85;7.60;;;;;;;15.68;100.00;100901.00;5045752;28;20099;-52
2023/08/26 00:40:02;;;;;;;13.55;8.18;;;;;;;15.66;100.00;100894.13;5046332;28;20022;-52
2023/08/26 00:42:27;;;;;;;10.63;7.68;;;;;;;15.62;100.00;100895.38;5048693;28;20066;-52
2023/08/26 00:44:52;;;;;;;11.60;7.38;;;;;;;15.57;100.00;100903.91;5047235;28;20033;-52
2023/08/26 00:47:18;;;;;;;13.52;7.47;;;;;;;15.56;100.00;100902.19;5046998;28;20159;-52
2023/08/26 00:49:43;;;;;;;12.35;6.97;;;;;;;15.51;100.00;100908.00;5044977;28;20086;-51
2023/08/26 00:52:10;;;;;;;13.65;6.40;;;;;;;15.43;100.00;100904.38;5053308;28;20075;-50
2023/08/26 00:54:35;;;;;;;10.38;5.95;;;;;;;15.34;100.00;100901.59;5050987;28;20434;-51
2023/08/26 00:57:03;;;;;;;12.55;6.07;;;;;;;15.26;100.00;100912.19;5055973;28;20112;-54
2023/08/26 00:59:29;;;;;;;9.25;5.75;;;;;;;15.24;100.00;100908.81;5051843;28;20036;-51
2023/08/26 01:01:54;;;;;;;9.50;5.05;;;;;;;15.16;100.00;100906.03;5047880;28;20026;-51
2023/08/26 01:04:20;;;;;;;10.70;4.80;;;;;;;15.11;100.00;100902.94;5048698;28;20033;-51
2023/08/26 01:06:45;;;;;;;9.68;5.00;;;;;;;15.01;100.00;100902.97;5049589;28;20021;-51
2023/08/26 01:09:11;;;;;;;7.72;4.50;;;;;;;14.95;100.00;100909.75;5049351;28;20390;-52
2023/08/26 01:11:59;;;;;;;7.68;4.50;;;;;;;14.89;100.00;100913.00;5051341;28;20031;-53
2023/08/26 01:14:33;;;;;;;9.93;4.22;;;;;;;14.79;100.00;100910.34;5049742;28;20029;-51
2023/08/26 01:17:00;;;;;;;8.13;4.13;;;;;;;14.71;100.00;100910.22;5048847;28;20184;-55
2023/08/26 01:19:36;;;;;;;6.82;4.10;;;;;;;14.69;100.00;100919.34;5043769;28;20456;-53
2023/08/26 01:22:05;;;;;;;6.32;4.20;;;;;;;14.63;100.00;100910.06;5036443;28;20105;-53
2023/08/26 01:24:31;;;;;;;;;;;;;;;14.75;100.00;100914.28;5046106;28;20426;-54
2023/08/26 01:26:57;;;;;;;8.75;4.22;;;;;;;14.61;100.00;100926.25;5045441;28;19905;-54
2023/08/26 01:29:23;;;;;;;9.75;3.67;;;;;;;14.56;100.00;100922.31;5045331;28;20029;-52
2023/08/26 01:31:56;;;;;;;7.25;3.92;;;;;;;14.47;100.00;100915.97;5049040;28;20036;-53
2023/08/26 01:34:25;;;;;;;8.45;4.28;;;;;;;14.37;100.00;100913.31;5045400;28;20065;-54
2023/08/26 01:36:52;;;;;;;9.57;4.13;;;;;;;14.27;100.00;100907.09;5048893;28;20036;-52
2023/08/26 01:39:19;;;;;;;9.65;4.05;;;;;;;14.30;100.00;100919.34;5042324;28;20033;-50
2023/08/26 01:41:51;;;;;;;6.78;3.92;;;;;;;14.27;100.00;100919.63;5047930;28;20044;-52
2023/08/26 01:44:20;;;;;;;9.18;4.22;;;;;;;14.21;100.00;100911.19;5045740;28;20064;-51
2023/08/26 01:46:46;;;;;;;8.10;3.90;;;;;;;14.19;100.00;100918.50;5050699;28;20029;-52
2023/08/26 01:49:11;;;;;;;9.55;3.70;;;;;;;14.16;100.00;100916.09;5057926;28;20035;-52
2023/08/26 01:51:37;;;;;;;7.85;4.22;;;;;;;14.15;100.00;100921.59;5045856;28;20116;-52
2023/08/26 01:54:06;;;;;;;9.13;3.92;;;;;;;14.12;100.00;100919.19;5049006;28;20026;-52
2023/08/26 01:56:31;;;;;;;10.37;3.73;;;;;;;14.11;100.00;100923.69;5041965;28;20033;-51
2023/08/26 01:58:56;;;;;;;7.85;3.60;;;;;;;14.02;100.00;100925.38;5051034;28;20074;-52
2023/08/26 02:01:22;;;;;;;9.65;3.65;;;;;;;14.00;100.00;100931.81;5045294;28;20411;-51
2023/08/26 02:03:47;;;;;;;8.50;3.60;;;;;;;13.91;100.00;100924.66;5051192;28;20032;-50
2023/08/26 02:06:12;;;;;;;6.78;3.45;;;;;;;13.88;100.00;100931.09;5053426;28;20099;-51
2023/08/26 02:08:38;;;;;;;5.38;3.53;;;;;;;13.88;100.00;100920.41;5051035;28;20025;-52
2023/08/26 02:11:03;;;;;;;7.38;3.30;;;;;;;13.79;100.00;100916.75;5045037;28;20025;-52
2023/08/26 02:13:30;;;;;;;6.72;3.00;;;;;;;13.76;100.00;100910.84;5047808;28;20023;-51
2023/08/26 02:15:55;;;;;;;10.93;3.53;;;;;;;13.71;100.00;100913.91;5046642;28;20041;-52
2023/08/26 02:18:22;;;;;;;8.05;3.22;;;;;;;13.70;100.00;100912.22;5053754;28;20025;-52
2023/08/26 02:20:48;;;;;;;8.38;3.20;;;;;;;13.68;100.00;100911.50;5056259;28;20474;-52
2023/08/26 02:23:14;;;;;;;7.13;3.05;;;;;;;13.61;100.00;100913.88;5051067;28;20032;-52
2023/08/26 02:25:39;;;;;;;4.85;2.80;;;;;;;13.56;100.00;100909.94;5047906;28;20045;-51
2023/08/26 02:28:05;;;;;;;11.48;3.00;;;;;;;13.51;100.00;100911.19;5043936;28;20017;-51
2023/08/26 02:30:31;;;;;;;6.53;3.17;;;;;;;13.51;100.00;100910.34;5044627;28;20033;-54
2023/08/26 02:32:56;;;;;;;6.43;3.05;;;;;;;13.47;100.00;100906.25;5045621;28;20047;-51
2023/08/26 02:35:21;;;;;;;8.13;2.85;;;;;;;13.46;100.00;100909.91;5045681;28;20158;-53
2023/08/26 02:37:47;;;;;;;7.68;2.70;;;;;;;13.40;100.00;100907.75;5042180;28;20041;-52
2023/08/26 02:40:12;;;;;;;6.70;3.08;;;;;;;13.40;100.00;100915.75;5049668;28;20039;-52
2023/08/26 02:42:37;;;;;;;7.93;3.13;;;;;;;13.35;100.00;100900.16;5051715;28;20044;-52
2023/08/26 02:45:04;;;;;;;9.07;2.97;;;;;;;13.31;100.00;100904.88;5051998;28;20118;-52
2023/08/26 02:47:30;;;;;;;5.63;3.08;;;;;;;13.28;100.00;100902.47;5045184;28;20025;-52
2023/08/26 02:49:55;;;;;;;6.00;2.75;;;;;;;13.28;100.00;100909.66;5043734;28;20029;-52
2023/08/26 02:52:20;;;;;;;6.15;3.00;;;;;;;13.24;100.00;100906.41;5050540;28;20043;-53
2023/08/26 02:54:46;;;;;;;9.70;3.13;;;;;;;13.23;100.00;100909.22;5048128;28;20100;-52
2023/08/26 02:57:11;;;;;;;11.05;3.50;;;;;;;13.18;100.00;100904.25;5050734;28;20064;-55
2023/08/26 02:59:36;;;;;;;8.55;2.70;;;;;;;13.12;100.00;100902.13;5051415;28;20483;-55
2023/08/26 03:02:03;;;;;;;5.90;2.97;;;;;;;13.12;100.00;100904.78;5046068;28;20021;-54
2023/08/26 03:04:30;;;;;;;6.57;3.00;;;;;;;13.06;100.00;100903.50;5045122;28;20032;-55
2023/08/26 03:06:55;;;;;;;5.50;2.90;;;;;;;13.05;100.00;100907.13;5047461;28;20021;-52
2023/08/26 03:09:21;;;;;;;8.90;3.30;;;;;;;13.02;100.00;100907.41;5055052;28;20060;-53
2023/08/26 03:11:46;;;;;;;9.40;3.60;;;;;;;13.02;100.00;100903.91;5045907;28;20130;-55
2023/08/26 03:14:11;;;;;;;8.70;3.10;;;;;;;13.00;100.00;100903.19;5047005;28;20035;-52
2023/08/26 03:16:37;;;;;;;8.05;3.00;;;;;;;13.00;100.00;100913.84;5046469;28;20074;-55
2023/08/26 03:19:02;;;;;;;5.50;2.72;;;;;;;12.99;100.00;100915.69;5042348;28;20022;-52
2023/08/26 03:21:28;;;;;;;6.45;2.90;;;;;;;12.93;100.00;100902.88;5045189;28;20471;-55
2023/08/26 03:23:54;;;;;;;6.38;2.70;;;;;;;12.93;100.00;100908.22;5048728;28;20029;-54
2023/08/26 03:26:19;;;;;;;6.45;2.83;;;;;;;12.91;100.00;100907.50;5039495;28;20033;-50
2023/08/26 03:28:45;;;;;;;8.45;2.70;;;;;;;12.88;100.00;100908.59;5044330;28;20053;-53
2023/08/26 03:31:10;;;;;;;8.68;2.80;;;;;;;12.91;100.00;100913.66;5048139;28;20115;-51
2023/08/26 03:33:35;;;;;;;8.55;3.50;;;;;;;12.89;100.00;100912.09;5052682;28;20073;-53
2023/08/26 03:36:05;;;;;;;6.57;3.03;;;;;;;12.86;100.00;100913.22;5051103;28;20033;-53
2023/08/26 03:38:30;;;;;;;7.45;2.92;;;;;;;12.82;100.00;100911.78;5047521;28;20033;-51
2023/08/26 03:40:55;;;;;;;7.35;3.10;;;;;;;12.84;100.00;100916.97;5046524;28;20044;-53
2023/08/26 03:43:21;;;;;;;6.28;2.95;;;;;;;12.81;100.00;100914.59;5054140;28;20059;-52
2023/08/26 03:45:46;;;;;;;6.30;2.92;;;;;;;12.79;100.00;100922.72;5052097;28;20027;-55
2023/08/26 03:48:12;;;;;;;9.80;3.08;;;;;;;12.75;100.00;100921.28;5052867;28;20104;-51
2023/08/26 03:50:37;;;;;;;8.10;3.22;;;;;;;12.72;100.00;100922.41;5046471;28;20117;-54
2023/08/26 03:53:03;;;;;;;5.10;2.78;;;;;;;12.71;100.00;100914.53;5048012;28;20032;-53
2023/08/26 03:55:29;;;;;;;9.07;3.45;;;;;;;12.67;100.00;100923.75;5046940;28;20051;-53
2023/08/26 03:57:54;;;;;;;8.23;3.38;;;;;;;12.70;100.00;100924.31;5041675;28;20029;-52
2023/08/26 04:00:20;;;;;;;8.30;3.03;;;;;;;12.65;100.00;100926.53;5052155;28;20025;-52
2023/08/26 04:02:45;;;;;;;8.52;3.15;;;;;;;12.65;100.00;100915.03;5048184;28;20021;-52
2023/08/26 04:05:13;;;;;;;7.97;3.63;;;;;;;12.59;100.00;100919.91;5041990;28;20479;-52
2023/08/26 04:07:38;;;;;;;6.97;2.72;;;;;;;12.60;100.00;100928.75;5050957;28;20029;-53
2023/08/26 04:10:04;;;;;;;9.30;3.50;;;;;;;12.55;100.00;100934.44;5039302;28;20364;-52
2023/08/26 04:12:29;;;;;;;6.68;3.20;;;;;;;12.57;100.00;100942.31;5048029;28;20033;-54
2023/08/26 04:14:55;;;;;;;8.32;3.40;;;;;;;12.54;100.00;100934.56;5046847;28;20478;-55
2023/08/26 04:17:20;;;;;;;8.80;3.45;;;;;;;12.51;100.00;100937.53;5051595;28;20025;-54
2023/08/26 04:19:45;;;;;;;9.18;3.45;;;;;;;12.50;100.00;100941.16;5042290;28;20025;-53
2023/08/26 04:22:10;;;;;;;8.40;4.18;;;;;;;12.51;100.00;100937.53;5052229;28;20023;-52
2023/08/26 04:24:36;;;;;;;9.35;3.47;;;;;;;12.46;100.00;100935.22;5043999;28;20116;-51
2023/08/26 04:27:01;;;;;;;7.95;3.58;;;;;;;12.49;100.00;100942.09;5051902;28;20382;-51
2023/08/26 04:29:26;;;;;;;8.75;3.25;;;;;;;12.48;100.00;100951.09;5047055;28;20033;-54
2023/08/26 04:31:52;;;;;;;4.90;3.50;;;;;;;12.43;100.00;100951.47;5047335;28;20382;-52
2023/08/26 04:34:18;;;;;;;8.52;3.70;;;;;;;12.42;100.00;100949.75;5051399;28;20033;-53
2023/08/26 04:36:43;;;;;;;7.68;3.55;;;;;;;12.42;100.00;100959.56;5051928;28;20025;-53
2023/08/26 04:39:11;;;;;;;11.23;3.78;;;;;;;12.37;100.00;100960.81;5043669;28;20028;-52
2023/08/26 04:41:39;;;;;;;5.68;3.20;;;;;;;12.36;100.00;100963.59;5057689;28;20116;-54
2023/08/26 04:44:07;;;;;;;8.80;3.50;;;;;;;12.35;100.00;100968.06;5052754;28;20155;-52
2023/08/26 04:46:32;;;;;;;6.85;3.10;;;;;;;12.31;100.00;100969.31;5060119;28;20428;-54
2023/08/26 04:48:58;;;;;;;7.82;3.70;;;;;;;12.31;100.00;100958.66;5052693;28;20025;-52
2023/08/26 04:51:23;;;;;;;9.88;3.05;;;;;;;12.27;100.00;100969.66;5056511;28;20025;-51
2023/08/26 04:53:48;;;;;;;5.63;3.33;;;;;;;12.27;100.00;100977.66;5043871;28;20074;-53
2023/08/26 04:56:15;;;;;;;6.35;3.42;;;;;;;12.28;100.00;100974.03;5056053;28;20020;-52
2023/08/26 04:58:40;;;;;;;8.20;3.30;;;;;;;12.24;100.00;100972.59;5055787;28;20509;-51
2023/08/26 05:01:05;;;;;;;4.95;2.75;;;;;;;12.22;100.00;100983.34;5046267;28;20029;-50
2023/08/26 05:03:31;;;;;;;6.05;3.35;;;;;;;12.20;100.00;100987.97;5057214;28;20707;-51
2023/08/26 05:05:56;;;;;;;7.45;3.45;;;;;;;12.21;100.00;100990.50;5047575;28;20057;-51
2023/08/26 05:08:21;;;;;;;5.47;2.95;;;;;;;12.19;100.00;100988.94;5050021;28;20491;-51
2023/08/26 05:10:47;;;;;;;6.28;3.30;;;;;;;12.19;100.00;100994.25;5049119;28;20036;-51
2023/08/26 05:13:12;;;;;;;8.00;3.63;;;;;;;12.19;100.00;100996.91;5051097;28;20413;-52
2023/08/26 05:15:37;;;;;;;6.70;3.17;;;;;;;12.22;100.00;100999.34;5050074;28;20060;-52
2023/08/26 05:18:03;;;;;;;4.43;2.92;;;;;;;12.19;100.00;100989.78;5044361;28;20161;-51
2023/08/26 05:20:29;;;;;;;9.48;3.58;;;;;;;12.20;100.00;100987.97;5053851;28;20092;-52
2023/08/26 05:22:55;;;;;;;6.82;3.10;;;;;;;12.20;100.00;100995.97;5042635;28;20029;-52
2023/08/26 05:25:21;;;;;;;5.28;2.95;;;;;;;12.24;100.00;100999.22;5047915;28;20098;-50
2023/08/26 05:27:47;;;;;;;6.13;3.10;;;;;;;12.25;100.00;100991.09;5043282;28;20049;-52
2023/08/26 05:30:12;;;;;;;4.70;3.30;;;;;;;12.24;100.00;100992.09;5047603;28;20082;-52
2023/08/26 05:32:38;;;;;;;8.60;3.25;;;;;;;12.25;100.00;100995.59;5044880;28;20422;-51
2023/08/26 05:35:03;;;;;;;4.38;3.15;;;;;;;12.26;100.00;100991.94;5047199;28;20108;-52
2023/08/26 05:37:29;;;;;;;8.60;3.35;;;;;;;12.26;100.00;100999.94;5046302;28;20059;-54
2023/08/26 05:39:54;;;;;;;8.63;3.22;;;;;;;12.28;100.00;100990.03;5053333;28;20143;-54
2023/08/26 05:42:19;;;;;;;8.48;3.60;;;;;;;12.29;100.00;100987.22;5052882;28;20052;-54
2023/08/26 05:44:45;;;;;;;4.35;3.17;;;;;;;12.31;100.00;100987.13;5046141;28;20112;-51
2023/08/26 05:47:10;;;;;;;7.22;3.35;;;;;;;12.35;100.00;100997.38;5046793;28;20052;-52
2023/08/26 05:49:35;;;;;;;8.45;3.45;;;;;;;12.37;100.00;100976.81;5046071;28;20451;-52
2023/08/26 05:52:01;;;;;;;5.47;3.50;;;;;;;12.39;100.00;100972.19;5045931;28;20080;-52
2023/08/26 05:54:26;;;;;;;9.13;4.05;;;;;;;12.43;100.00;100979.94;5057904;28;20073;-53
2023/08/26 05:56:51;;;;;;;7.28;3.85;;;;;;;12.45;100.00;100977.97;5047490;28;20032;-53
2023/08/26 05:59:17;;;;;;;10.07;3.92;;;;;;;12.49;100.00;100982.06;5049576;28;20017;-55
2023/08/26 06:01:43;;;;;;;8.45;4.22;;;;;;;12.51;100.00;100980.97;5047856;28;20532;-52
2023/08/26 06:04:08;;;;;;;8.18;4.13;;;;;;;12.54;100.00;100983.41;5048493;28;20037;-52
2023/08/26 06:06:33;;;;;;;11.38;5.07;;;;;;;12.59;100.00;100985.69;5051213;28;20460;-54
2023/08/26 06:08:59;;;;;;;8.70;4.30;;;;;;;12.63;100.00;100986.28;5052002;28;20028;-52
2023/08/26 06:11:24;;;;;;;12.35;4.40;;;;;;;12.66;100.00;100978.88;5048907;28;20020;-54
2023/08/26 06:13:50;;;;;;;11.52;5.05;;;;;;;12.70;100.00;100971.44;5046458;28;20069;-51
2023/08/26 06:16:19;;;;;;;11.70;4.78;;;;;;;12.73;100.00;100969.38;5043564;28;20039;-52
2023/08/26 06:18:46;;;;;;;9.60;4.55;;;;;;;12.80;100.00;100971.53;5037052;28;20087;-52
2023/08/26 06:21:11;;;;;;;8.60;4.47;;;;;;;12.82;100.00;100965.09;5040247;28;20024;-50
2023/08/26 06:23:36;;;;;;;16.65;4.93;;;;;;;12.88;100.00;100969.06;5048510;28;20383;-51
2023/08/26 06:26:02;;;;;;;10.15;4.95;;;;;;;12.93;100.00;100977.53;5051016;28;20068;-50
2023/08/26 06:28:27;;;;;;;12.75;4.82;;;;;;;12.96;100.00;100971.94;5042149;28;20503;-53
2023/08/26 06:30:59;;;;;;;11.57;4.80;;;;;;;13.00;100.00;100967.19;5038143;28;20120;-52
2023/08/26 06:33:25;;;;;;;12.38;5.07;;;;;;;13.05;100.00;100972.97;5044022;28;20032;-51
2023/08/26 06:35:51;;;;;;;14.63;4.70;;;;;;;13.07;100.00;100968.34;5040675;28;20029;-53
2023/08/26 06:38:16;;;;;;;9.48;4.75;;;;;;;13.14;100.00;100975.69;5041626;28;20024;-52
2023/08/26 06:40:41;;;;;;;11.45;4.63;;;;;;;13.20;100.00;100979.66;5042120;28;20391;-54
2023/08/26 06:43:08;;;;;;;8.27;4.60;;;;;;;13.26;100.00;100972.97;5040826;28;20037;-51
2023/08/26 06:45:33;;;;;;;11.82;4.60;;;;;;;13.31;100.00;100970.75;5040994;28;20108;-51
2023/08/26 06:47:59;;;;;;;8.40;4.47;;;;;;;13.37;100.00;100970.22;5048156;28;20120;-51
2023/08/26 06:50:24;;;;;;;8.13;4.47;;;;;;;13.42;100.00;100962.69;5043320;28;20056;-54
2023/08/26 06:52:50;;;;;;;11.27;4.20;;;;;;;13.49;100.00;100968.34;5045791;28;20099;-51
2023/08/26 06:55:17;;;;;;;10.95;4.57;;;;;;;13.57;100.00;100959.66;5041127;28;20033;-52
2023/08/26 06:57:42;;;;;;;9.98;4.38;;;;;;;13.65;100.00;100962.50;5048926;28;20037;-53
2023/08/26 07:00:08;;;;;;;8.38;4.15;;;;;;;13.79;100.00;100964.81;5040737;28;20480;-51
2023/08/26 07:02:34;;;;;;;9.30;4.43;;;;;;;13.89;100.00;100972.84;5049288;28;20367;-51
2023/08/26 07:04:59;;;;;;;11.20;4.30;;;;;;;14.00;100.00;100969.22;5043584;28;20033;-52
2023/08/26 07:07:25;;;;;;;9.68;3.60;;;;;;;14.24;100.00;100980.38;5043528;28;20029;-52
2023/08/26 07:09:50;;;;;;;9.02;4.15;;;;;;;14.39;100.00;100975.47;5039094;28;20449;-52
2023/08/26 07:12:15;;;;;;;6.85;3.83;;;;;;;14.64;100.00;100975.06;5045096;28;20122;-54
2023/08/26 07:14:41;;;;;;;9.57;3.63;;;;;;;14.83;100.00;100972.41;5049489;28;20029;-52
2023/08/26 07:17:06;;;;;;;8.20;3.20;;;;;;;15.05;100.00;100970.41;5050774;28;20095;-53
2023/08/26 07:19:31;;;;;;;6.25;3.00;;;;;;;15.27;100.00;100971.88;5038723;28;20148;-53
2023/08/26 07:21:57;;;;;;;6.68;2.83;;;;;;;15.54;100.00;100968.44;5047208;28;20074;-52
2023/08/26 07:24:22;;;;;;;9.73;3.17;;;;;;;15.84;100.00;100975.38;5040278;28;20554;-52
2023/08/26 07:26:47;;;;;;;6.03;2.85;;;;;;;16.00;100.00;100974.69;5045588;28;20030;-51
2023/08/26 07:29:13;;;;;;;6.30;2.95;;;;;;;16.29;100.00;100976.38;5034075;28;20103;-52
2023/08/26 07:31:38;;;;;;;8.90;2.90;;;;;;;16.55;100.00;100979.13;5045289;28;20051;-52
2023/08/26 07:34:03;;;;;;;6.15;3.00;;;;;;;16.72;100.00;100974.78;5043386;28;20060;-51
2023/08/26 07:36:29;;;;;;;5.13;2.38;;;;;;;16.91;100.00;100973.78;5044058;28;20493;-52
2023/08/26 07:38:54;;;;;;;6.18;2.63;;;;;;;17.00;97.43;100975.53;5038005;28;20030;-51
2023/08/26 07:41:19;;;;;;;7.40;2.83;;;;;;;17.29;96.57;100976.22;5040455;28;20026;-51
2023/08/26 07:43:45;;;;;;;8.38;2.65;;;;;;;17.55;95.96;100989.63;5042142;28;20580;-52
2023/08/26 07:46:10;;;;;;;5.60;2.42;;;;;;;17.67;92.48;100982.13;5038656;28;20482;-51
2023/08/26 07:48:35;;;;;;;7.07;2.60;;;;;;;17.90;95.03;100982.41;5048382;28;20111;-52
2023/08/26 07:51:01;;;;;;;8.30;2.63;;;;;;;18.11;92.73;100982.81;5045412;28;20047;-54
2023/08/26 07:53:26;;;;;;;4.93;2.10;;;;;;;18.28;93.90;100983.69;5045520;28;20029;-52
2023/08/26 07:55:51;;;;;;;6.25;2.35;;;;;;;18.54;91.59;100993.50;5049031;28;20037;-51
2023/08/26 07:58:17;;;;;;;5.90;2.10;;;;;;;18.66;88.71;101000.25;5049531;28;20028;-51
2023/08/26 08:00:42;;;;;;;6.40;2.17;;;;;;;18.74;86.87;100998.59;5051425;28;20627;-52
2023/08/26 08:03:07;;;;;;;3.60;1.80;;;;;;;18.86;85.64;100987.31;5045195;28;20029;-50
2023/08/26 08:05:33;;;;;;;6.00;2.20;;;;;;;18.97;85.19;100988.84;5053221;28;20024;-52
2023/08/26 08:07:58;;;;;;;4.55;2.00;;;;;;;19.12;85.00;100990.84;5036596;28;20441;-51
2023/08/26 08:10:23;;;;;;;7.28;1.95;;;;;;;19.31;84.69;100987.78;5043125;28;20027;-51
2023/08/26 08:12:49;;;;;;;4.35;1.85;;;;;;;19.56;84.23;100982.34;5046562;28;20025;-52
2023/08/26 08:15:14;;;;;;;7.32;2.05;;;;;;;19.69;81.60;100977.25;5044722;28;20026;-54
2023/08/26 08:17:39;;;;;;;8.55;2.40;;;;;;;19.74;80.74;100980.25;5051266;28;20021;-51
2023/08/26 08:20:05;;;;;;;6.72;1.70;;;;;;;19.98;80.27;100969.56;5041921;28;20033;-52
2023/08/26 08:22:37;;;;;;;2.95;1.42;;;;;;;20.13;79.77;100967.78;5050751;28;20078;-53
2023/08/26 08:25:03;;;;;;;4.15;1.70;;;;;;;20.34;77.97;100977.97;5048581;28;20044;-55
2023/08/26 08:27:30;;;;;;;6.78;1.60;;;;;;;20.55;78.12;100968.38;5053330;28;20032;-50
2023/08/26 08:29:57;;;;;;;5.15;1.67;;;;;;;20.70;78.47;100975.53;5046986;28;20430;-50
2023/08/26 08:32:22;;;;;;;3.65;1.42;;;;;;;20.80;75.37;100978.00;5045775;28;20036;-52
2023/08/26 08:34:47;;;;;;;5.18;1.70;;;;;;;20.93;76.50;100963.84;5050893;28;20375;-50
2023/08/26 08:37:13;;;;;;;3.42;1.88;;;;;;;21.10;74.26;100971.81;5052286;28;20390;-51
2023/08/26 08:39:38;;;;;;;4.68;1.58;;;;;;;21.18;71.63;100969.03;5054252;28;20047;-51
2023/08/26 08:42:05;;;;;;;4.90;1.52;;;;;;;21.36;74.25;100971.38;5048687;28;20436;-51
2023/08/26 08:44:34;;;;;;;3.90;1.48;;;;;;;21.49;72.67;100971.59;5054854;28;20067;-51
2023/08/26 08:47:03;;;;;;;5.13;1.60;;;;;;;21.72;73.68;100978.78;5049065;28;20049;-51
2023/08/26 08:49:29;;;;;;;3.42;1.20;;;;;;;21.77;71.32;100981.75;5054779;28;20028;-51
2023/08/26 08:51:55;;;;;;;5.93;1.60;;;;;;;21.75;71.73;100975.69;5055338;28;20029;-56
2023/08/26 08:54:21;;;;;;;4.18;1.85;;;;;;;21.65;68.55;100983.25;5045756;28;20034;-55
2023/08/26 08:56:46;;;;;;;3.30;1.27;;;;;;;21.53;68.02;100983.72;5038259;28;20044;-55
2023/08/26 08:59:13;;;;;;;3.35;1.40;;;;;;;21.71;69.30;100988.72;5041807;28;20022;-55
2023/08/26 09:01:38;;;;;;;5.57;1.67;;;;;;;21.79;68.29;100993.22;5043627;28;20112;-53
2023/08/26 09:04:07;;;;;;;4.60;1.60;;;;;;;21.98;70.79;100991.78;5043304;28;20447;-53
2023/08/26 09:06:34;;;;;;;3.47;1.20;;;;;;;22.09;66.57;101006.69;5055020;28;20755;-51
2023/08/26 09:09:00;;;;;;;4.10;1.30;;;;;;;22.06;66.66;101009.78;5042297;28;20037;-51
2023/08/26 09:11:27;;;;;;;6.47;2.08;;;;;;;21.91;64.66;101004.38;5043009;28;20040;-51
2023/08/26 09:13:52;;;;;;;4.28;1.48;;;;;;;21.82;65.68;101003.66;5044272;28;20034;-50
2023/08/26 09:16:34;;;;;;;3.15;1.23;;;;;;;21.86;69.15;101002.25;5059183;28;20399;-52
2023/08/26 09:19:00;;;;;;;3.28;1.70;;;;;;;21.88;66.76;100999.34;5049057;28;20029;-53
2023/08/26 09:21:25;;;;;;;2.83;1.13;;;;;;;22.03;67.20;101008.28;5049145;28;20039;-51
2023/08/26 09:23:50;;;;;;;5.45;1.23;;;;;;;22.08;66.52;101005.00;5054466;28;20499;-52
2023/08/26 09:26:16;;;;;;;3.67;1.47;;;;;;;22.20;67.01;101002.66;5049539;28;20499;-51
2023/08/26 09:28:50;;;;;;;2.92;1.30;;;;;;;22.19;67.81;101009.94;5044588;28;20326;-55
2023/08/26 09:31:16;;;;;;;3.63;1.23;;;;;;;22.11;66.16;101007.34;5045299;28;20027;-52
2023/08/26 09:33:41;;;;;;;3.25;1.63;;;;;;;21.99;63.93;101018.63;5051549;28;20107;-51
2023/08/26 09:36:06;;;;;;;2.38;1.13;;;;;;;21.97;66.05;101015.28;5045839;28;20029;-55
2023/08/26 09:38:47;;;;;;;3.10;1.17;;;;;;;22.21;66.48;101009.75;5049904;28;20021;-52
2023/08/26 09:41:19;;;;;;;3.72;1.30;;;;;;;22.38;63.53;101005.78;5043808;28;20036;-49
2023/08/26 09:43:45;;;;;;;3.45;1.42;;;;;;;22.61;64.34;101005.63;5047712;28;20049;-50
2023/08/26 09:46:19;;;;;;;3.03;1.40;;;;;;;22.71;66.42;101005.31;5041729;28;20509;-50
2023/08/26 09:48:47;;;;;;;3.05;1.10;;;;;;;22.96;62.28;101008.44;5044404;28;20436;-50
2023/08/26 09:51:23;;;;;;;3.58;1.38;;;;;;;23.04;62.36;101007.47;5042024;28;20127;-50
2023/08/26 09:53:50;;;;;;;2.47;1.20;;;;;;;23.21;61.63;101013.47;5042174;28;20026;-51
2023/08/26 09:56:16;;;;;;;5.40;1.60;;;;;;;23.17;60.60;101017.63;5043435;28;20033;-50
2023/08/26 09:58:42;;;;;;;4.28;1.30;;;;;;;23.45;60.93;101015.72;5039117;28;20097;-50
2023/08/26 10:01:07;;;;;;;4.43;1.10;;;;;;;23.60;59.01;101015.63;5048228;28;20032;-51
2023/08/26 10:03:37;;;;;;;3.85;1.23;;;;;;;23.66;59.58;101016.69;5049506;28;20052;-51
2023/08/26 10:06:04;;;;;;;3.75;1.52;;;;;;;23.91;59.19;101016.22;5048858;28;20037;-50
2023/08/26 10:08:32;;;;;;;5.53;1.60;;;;;;;23.89;57.79;101007.44;5037505;28;20030;-51
2023/08/26 10:11:01;;;;;;;2.05;1.00;;;;;;;24.10;58.84;101012.75;5047553;28;20056;-51
2023/08/26 10:13:27;;;;;;;2.05;1.05;;;;;;;24.22;56.11;101012.19;5046298;28;20025;-52
2023/08/26 10:15:56;;;;;;;0.95;0.88;;;;;;;24.15;55.44;101010.28;5052066;28;20467;-50
2023/08/26 10:18:51;;;;;;;4.47;1.13;;;;;;;24.46;59.77;101005.34;5053198;28;20112;-50
2023/08/26 10:21:17;;;;;;;5.45;1.15;;;;;;;24.47;55.27;101005.13;5045035;28;20057;-51
2023/08/26 10:23:43;;;;;;;2.30;1.10;;;;;;;24.55;54.67;101007.69;5045650;28;20067;-49
2023/08/26 10:26:09;;;;;;;6.13;1.20;;;;;;;24.87;54.59;101015.25;5051994;28;20090;-51
2023/08/26 10:28:36;;;;;;;4.93;2.08;;;;;;;24.93;54.06;101017.97;5046358;28;20039;-49
2023/08/26 10:31:06;;;;;;;5.15;1.83;;;;;;;24.92;54.94;101010.84;5042532;28;20025;-50
2023/08/26 10:34:06;;;;;;;3.15;1.23;;;;;;;25.00;56.80;101009.00;5043404;28;20021;-50
2023/08/26 10:36:37;;;;;;;3.33;0.80;;;;;;;24.90;53.74;101009.41;5050639;28;20086;-52
2023/08/26 10:39:03;;;;;;;3.78;1.08;;;;;;;25.00;53.32;101017.16;5049100;28;20025;-49
2023/08/26 10:41:30;;;;;;;3.20;0.93;;;;;;;24.86;53.16;101000.81;5048550;28;20494;-50
2023/08/26 10:43:58;;;;;;;2.97;1.05;;;;;;;24.71;55.28;101002.91;5042642;28;20060;-51
2023/08/26 10:46:53;;;;;;;2.65;0.95;;;;;;;24.74;54.80;100995.16;5053432;28;20032;-51
2023/08/26 10:49:23;;;;;;;5.72;1.00;;;;;;;24.70;55.01;100993.09;5049071;28;20025;-50
2023/08/26 10:52:07;;;;;;;1.88;0.88;;;;;;;24.77;56.94;100996.66;5042673;28;20037;-52
2023/08/26 10:54:34;;;;;;;2.05;0.85;;;;;;;24.90;54.30;100995.81;5036332;28;20609;-51
2023/08/26 10:57:04;;;;;;;1.33;0.90;;;;;;;25.12;55.76;100985.56;5038439;28;20041;-52
2023/08/26 10:59:37;;;;;;;1.50;0.90;;;;;;;25.25;53.77;100991.00;5044841;28;20040;-51
2023/08/26 11:02:07;;;;;;;2.65;1.13;;;;;;;25.22;51.02;100991.41;5042839;28;20495;-49
2023/08/26 11:04:35;;;;;;;1.15;0.90;;;;;;;25.32;54.53;100982.84;5045855;28;20025;-51
2023/08/26 11:07:00;;;;;;;1.80;0.93;;;;;;;25.35;51.89;100982.44;5041940;28;20083;-50
2023/08/26 11:09:26;;;;;;;3.30;1.08;;;;;;;25.44;51.04;100988.47;5056791;28;20036;-51
2023/08/26 11:11:51;;;;;;;3.38;1.27;;;;;;;25.20;51.99;100976.38;5045245;28;20040;-50
2023/08/26 11:14:17;;;;;;;3.70;0.90;;;;;;;25.06;52.09;100970.09;5055966;28;20025;-51
2023/08/26 11:16:42;;;;;;;2.10;0.80;;;;;;;25.12;49.90;100974.69;5051661;28;20040;-50